Record high temperature 35.8°C Record low temperature -23.5°C Record high gust 79.6 km/h Record high average 153.6 km/h Record daily rain 37.0 mm Record low windchill -31.0°C Record high barometer 1039.3 hPa Record low barometer 980.3 hPa
Daily high pressure 1020.3 hPa Daily low pressure 1020.1 hPa Daily low windchill -1.6°C Daily high heat index -0.8°C Daily high gust speed 3.7 kmh O Daily high average speed 0.0 kmh O
Wetterdaten
LETZTE AKTUALISIERUNG UM: 00:45 DATUM: Januar 21 2019, time of next update: 01:00
Aktuelles Wettermostly cloudy/Night Aktuelle Temperatur -0.8°C (30.5°F), Apparent temp -2.7°C
Höchsttemperatur (seit Mitternacht)-0.8°C um: 00:00 Tiefsttemperatur (seit Mitternacht)-0.8°C um: 00:00
Windgeschwindigkeit (10 Minuten )0.0 kmh (0.0 kts) Windrichtung (Dir) (10 Minuten )E (90°)
Windchill Temperatur -0.8°C Windspitzen (letzte Std)3.4 kmh (1.8 kts) um: 00:01
Windspitzen (seit Mitternacht)3.7 kmh (2.0 kts) um: 00:01 Höchstes Windmittel / Minute (seit Mitternacht)0.0 kmh (0.0 kts) um: 07:01
Regenmenge (letzte Std)0.0 mm Regenmenge (seit Mitternacht)0.0 mm (0.00 in.)---
Regenmenge diesen Monat 60.0 mm (2.36 in.) Regenmenge seit Jahresbeginn 60.0 mm (2.36 in.)
Höchste Regenmenge pro Minute (letzte Std)0.0 mm/min Höchste Regenmenge pro Stunde (letzte 6 Std)0.0 mm/stunde
Regenmenge Gestern 0.0 mm Taupunkt -4.0°C (Wet Bulb :-1.9°C )
Luftfeuchtigkeit 79 %, Humidex -3.9°C Aktueller Luftdruck (auf Meereshöhe bezogen)1020.2 hPa
Luftdrucktendenz +0.1 hPa (letzte Std) Trend (letzte 1 Std)gleichbleibend
Luftdrucktendenz (letzte 12 Std)+3.7 hPa Luftdrucktendenz (letzte 6 Std)+2.3 hPa
Maximum Soil temperature (seit Mitternacht) 1.1°C Minimum Soil temperature(seit Mitternacht)1.1°C
Current Soil temperature 1°C
Current Solar 0 W/m²
Maximum solar (seit Mitternacht) 0 W/m² Minimum solar(seit Mitternacht)0 W/m²
Current 00:00 hours of sunshine today, current sky: Nicht bestimmbar (Nachtzeit)/Dry/Cloudy with clear patches
Sunshine hours for the year: 27:35 hrs Sunshine hours for the month: 27:35 hrs
Current evapotranspiration rate 0.1 mm per day. Yesterday's reading 0.2

Diese Seite wurde mit aktuellen Daten einer DAVIS VP Wetterstation erstellt. Drücken Sie bitte auf "Aktualisieren" oder "neu laden" um die neuesten Daten zu erhalten.


Animated web cam image


Weather report/warning/Metars

Stuttgart-Echterdingen, Germany (EDDS) 48-41N 009-13E 391M
Jan 20, 2019 - 06:20 PM EST / 2019.01.20 2320 UTC
Wind: from the NE (040 degrees) at 3 MPH (3 KT):0
Visibility: greater than 7 mile(s):0
Sky conditions: mostly cloudy
Temperature: 28 F (-2 C)
Dew Point: 24 F (-4 C)
Relative Humidity: 86%
Pressure (altimeter): 30.06 in. Hg (1018 hPa)
ob: EDDS 202320Z 04003KT 9999 SCT026 BKN049 M02/M04 Q1018
cycle: 23
Augsburg, Germany (EDMA) 48-26N 010-56E 463M
Jan 20, 2019 - 06:20 PM EST / 2019.01.20 2320 UTC
Wind: from the NE (050 degrees) at 3 MPH (3 KT) (direction variable):0
Visibility: 3 mile(s):0
Sky conditions: overcast
Temperature: 24 F (-4 C)
Dew Point: 23 F (-5 C)
Relative Humidity: 92%
Pressure (altimeter): 30.06 in. Hg (1018 hPa)
ob: EDMA 202320Z AUTO 05003KT 020V080 6000 // FEW009/// OVC051/// M04/M05 Q1018
cycle: 23
Nuernberg, Germany (EDDN) 49-30N 011-03E 318M
Jan 20, 2019 - 06:20 PM EST / 2019.01.20 2320 UTC
Wind: from the ENE (070 degrees) at 2 MPH (2 KT):0
Visibility: greater than 7 mile(s):0
Sky conditions: mostly cloudy
Temperature: 26 F (-3 C)
Dew Point: 19 F (-7 C)
Relative Humidity: 73%
Pressure (altimeter): 30.12 in. Hg (1020 hPa)
ob: EDDN 202320Z 07002KT 9999 BKN022 M03/M07 Q1020
cycle: 23
Berlin-Tegel, Germany (EDDT) 52-34N 013-19E 37M
Jan 20, 2019 - 06:20 PM EST / 2019.01.20 2320 UTC
Wind: Calm:0
Visibility: 4 mile(s):0
Sky conditions: overcast
Temperature: 26 F (-3 C)
Dew Point: 23 F (-5 C)
Relative Humidity: 86%
Pressure (altimeter): 30.21 in. Hg (1023 hPa)
ob: EDDT 202320Z 00000KT 7000 OVC006 M03/M05 Q1023 R88/19//95
cycle: 23
Friedrichshafen, Germany (EDNY) 47-40N 009-31E 424M
Jan 20, 2019 - 06:20 PM EST / 2019.01.20 2320 UTC
Wind: from the NE (040 degrees) at 6 MPH (5 KT) (direction variable):0
Visibility: greater than 7 mile(s):0
Sky conditions: overcast
Temperature: 30 F (-1 C)
Windchill: 23 F (-5 C):1
Dew Point: 24 F (-4 C)
Relative Humidity: 80%
Pressure (altimeter): 30.03 in. Hg (1017 hPa)
ob: EDNY 202320Z AUTO 04005KT 350V070 9999 // BKN050/// OVC064/// M01/M04 Q1017
cycle: 23
Hamburg-Finkenwerder, Germany (EDHI) 53-32N 009-50E 13M
Jan 20, 2019 - 06:20 PM EST / 2019.01.20 2320 UTC
Wind: Variable at 1 MPH (1 KT):0
Visibility: 2 mile(s):0
Sky conditions: mostly clear
Temperature: 21 F (-6 C)
Dew Point: 19 F (-7 C)
Relative Humidity: 92%
Pressure (altimeter): 30.21 in. Hg (1023 hPa)
ob: EDHI 202320Z AUTO VRB01KT 4300 // FEW009/// M06/M07 Q1023
cycle: 23



Die Wetterdaten werden alle 2 Minuten gespeichert, aber die Datenübertragung findet jede Minute statt. Die beste Ansicht wird in einer Auflösung von 800 x 600 und "True colour" erzielt. Linie zeigt die relative Luftfeuchtigkeit an.

Drücken Sie bitte auf "Aktualisieren" in Ihrem Browser, um die aktuellsten Daten zu erhalten.

Klicken Sie hier, um eine Übersicht der Durchschnitts- u. Extremwerte für den Monat zu erhalten
Created by "Weather Display" software version 10.37S at this start time/date 19:21:58 20.01.2019